MDBH

Maria Montez International Airport

Barahona, Dominican Republic
TAF MDBH 212200Z 2200/2224 13012KT 9999 FEW016CB SCT018 SCT080 PROB30 2202/2208 8000 -RA FEW014CB SCT016 BKN070 BECMG 2210/2212 27005KT
Issued Valid From Valid To
Jan-21 @ 22:00 UTC
(2 hours ago)
Jan-22 @ 00:00 UTC
(11 minutes ago)
Jan-23 @ 00:00 UTC
(in 24 hours)
Jan-22 @ 00:00 to Jan-22 @ 10:00
TAF MDBH 212200Z 2200/2224 13012KT 9999 FEW016CB SCT018 SCT080
Wind Visibility Clouds
130° at 12 knots 10,000+ meters
  • Few at 1,600' AGL
  • Scattered at 1,800' AGL
  • Scattered at 8,000' AGL
Probable  (Probability 30%) Jan-22 @ 02:00 to Jan-22 @ 08:00
PROB30 2202/2208 8000 -RA FEW014CB SCT016 BKN070
Visibility Clouds Conditions
7,998 meters
  • Few at 1,400' AGL
  • Scattered at 1,600' AGL
  • Broken at 7,000' AGL
  • Light Rain
Becoming Jan-22 @ 10:00 to Jan-23 @ 00:00
BECMG 2210/2212 27005KT
Wind Visibility Clouds
270° at 5 knots 10,000+ meters
  • Few at 1,600' AGL
  • Scattered at 1,800' AGL
  • Scattered at 8,000' AGL
TAF MDBH 212200Z 2200/2224 13012KT 9999 FEW016CB SCT018 SCT080 PROB30 2202/2208 8000 -RA FEW014CB SCT016 BKN070 BECMG 2210/2212 27005KT
Issued Jan-21 @ 22:00 UTC
(2 hours ago)
Valid From Jan-22 @ 00:00 UTC
(11 minutes ago)
Valid To Jan-23 @ 00:00 UTC
(in 24 hours)
Jan-22 @ 00:00 - Jan-22 @ 10:00
Wind Visibility
130° at 12 knots 10,000+ meters
Clouds
  • Few at 1,600' AGL
  • Scattered at 1,800' AGL
  • Scattered at 8,000' AGL
Probability 30% Probable Jan-22 @ 02:00 - Jan-22 @ 08:00
Clouds
  • Few at 1,400' AGL
  • Scattered at 1,600' AGL
  • Broken at 7,000' AGL
Conditions
  • Light Rain
Becoming Jan-22 @ 10:00 - Jan-23 @ 00:00
Wind Visibility
270° at 5 knots 10,000+ meters
Clouds
  • Few at 1,600' AGL
  • Scattered at 1,800' AGL
  • Scattered at 8,000' AGL